sensor_id;sensor_type;location;lat;lon;timestamp;temperature;humidity
23815;DHT22;12088;53.078;8.720;2023-02-01T00:00:32;6.00;99.90
23815;DHT22;12088;53.078;8.720;2023-02-01T00:02:59;6.00;99.90
23815;DHT22;12088;53.078;8.720;2023-02-01T00:05:25;6.00;99.90
23815;DHT22;12088;53.078;8.720;2023-02-01T00:07:50;6.00;99.90
23815;DHT22;12088;53.078;8.720;2023-02-01T00:10:17;6.00;99.90
23815;DHT22;12088;53.078;8.720;2023-02-01T00:12:42;6.00;99.90
23815;DHT22;12088;53.078;8.720;2023-02-01T00:15:08;6.00;99.90
23815;DHT22;12088;53.078;8.720;2023-02-01T00:17:33;6.00;99.90
23815;DHT22;12088;53.078;8.720;2023-02-01T00:19:59;6.10;99.90
23815;DHT22;12088;53.078;8.720;2023-02-01T00:22:24;6.10;99.90
23815;DHT22;12088;53.078;8.720;2023-02-01T00:24:50;6.10;99.90
23815;DHT22;12088;53.078;8.720;2023-02-01T00:27:15;6.20;99.90
23815;DHT22;12088;53.078;8.720;2023-02-01T00:29:45;6.00;99.90
23815;DHT22;12088;53.078;8.720;2023-02-01T00:32:10;6.10;99.90
23815;DHT22;12088;53.078;8.720;2023-02-01T00:34:36;6.10;99.90
23815;DHT22;12088;53.078;8.720;2023-02-01T00:37:02;6.10;99.90
23815;DHT22;12088;53.078;8.720;2023-02-01T00:39:27;6.20;99.90
23815;DHT22;12088;53.078;8.720;2023-02-01T00:41:53;6.10;99.90
23815;DHT22;12088;53.078;8.720;2023-02-01T00:44:18;6.10;99.90
23815;DHT22;12088;53.078;8.720;2023-02-01T00:46:44;6.10;99.90
23815;DHT22;12088;53.078;8.720;2023-02-01T00:49:09;6.00;99.90
23815;DHT22;12088;53.078;8.720;2023-02-01T00:51:35;6.00;99.90
23815;DHT22;12088;53.078;8.720;2023-02-01T00:54:00;6.00;99.90
23815;DHT22;12088;53.078;8.720;2023-02-01T00:56:26;6.10;99.90
23815;DHT22;12088;53.078;8.720;2023-02-01T00:58:55;6.00;99.90
23815;DHT22;12088;53.078;8.720;2023-02-01T01:01:23;6.10;99.90
23815;DHT22;12088;53.078;8.720;2023-02-01T01:03:52;6.10;99.90
23815;DHT22;12088;53.078;8.720;2023-02-01T01:06:21;6.20;99.90
23815;DHT22;12088;53.078;8.720;2023-02-01T01:08:47;6.10;99.90
23815;DHT22;12088;53.078;8.720;2023-02-01T01:11:19;6.10;99.90
23815;DHT22;12088;53.078;8.720;2023-02-01T01:13:50;6.20;99.90
23815;DHT22;12088;53.078;8.720;2023-02-01T01:16:16;6.20;99.90
23815;DHT22;12088;53.078;8.720;2023-02-01T01:18:42;6.20;99.90
23815;DHT22;12088;53.078;8.720;2023-02-01T01:21:09;6.20;99.90
23815;DHT22;12088;53.078;8.720;2023-02-01T01:23:37;6.20;99.90
23815;DHT22;12088;53.078;8.720;2023-02-01T01:26:11;6.20;99.90
23815;DHT22;12088;53.078;8.720;2023-02-01T01:28:37;6.30;99.90
23815;DHT22;12088;53.078;8.720;2023-02-01T01:31:03;6.10;99.90
23815;DHT22;12088;53.078;8.720;2023-02-01T01:33:29;6.10;99.90
23815;DHT22;12088;53.078;8.720;2023-02-01T01:35:55;6.20;99.90
23815;DHT22;12088;53.078;8.720;2023-02-01T01:38:20;6.20;99.90
23815;DHT22;12088;53.078;8.720;2023-02-01T01:40:47;6.20;99.90
23815;DHT22;12088;53.078;8.720;2023-02-01T01:43:16;6.20;99.90
23815;DHT22;12088;53.078;8.720;2023-02-01T01:45:42;6.20;99.90
23815;DHT22;12088;53.078;8.720;2023-02-01T01:48:21;6.10;99.90
23815;DHT22;12088;53.078;8.720;2023-02-01T01:51:01;6.20;99.90
23815;DHT22;12088;53.078;8.720;2023-02-01T01:53:33;6.10;99.90
23815;DHT22;12088;53.078;8.720;2023-02-01T01:56:00;6.20;99.90
23815;DHT22;12088;53.078;8.720;2023-02-01T01:58:28;6.20;99.90
23815;DHT22;12088;53.078;8.720;2023-02-01T02:00:54;6.20;99.90
23815;DHT22;12088;53.078;8.720;2023-02-01T02:03:27;6.10;99.90
23815;DHT22;12088;53.078;8.720;2023-02-01T02:05:57;6.20;99.90
23815;DHT22;12088;53.078;8.720;2023-02-01T02:08:25;6.20;99.90
23815;DHT22;12088;53.078;8.720;2023-02-01T02:10:52;6.20;99.90
23815;DHT22;12088;53.078;8.720;2023-02-01T02:13:40;6.10;99.90
23815;DHT22;12088;53.078;8.720;2023-02-01T02:18:48;6.10;99.90
23815;DHT22;12088;53.078;8.720;2023-02-01T02:21:41;6.10;99.90
23815;DHT22;12088;53.078;8.720;2023-02-01T02:24:22;6.10;99.90
23815;DHT22;12088;53.078;8.720;2023-02-01T02:32:47;6.20;99.90
23815;DHT22;12088;53.078;8.720;2023-02-01T02:35:26;6.10;99.90
23815;DHT22;12088;53.078;8.720;2023-02-01T02:37:54;6.10;99.90
23815;DHT22;12088;53.078;8.720;2023-02-01T02:40:31;6.10;99.90
23815;DHT22;12088;53.078;8.720;2023-02-01T02:43:19;6.10;99.90
23815;DHT22;12088;53.078;8.720;2023-02-01T02:46:23;6.10;99.90
23815;DHT22;12088;53.078;8.720;2023-02-01T02:49:20;6.10;99.90
23815;DHT22;12088;53.078;8.720;2023-02-01T02:51:52;6.20;99.90
23815;DHT22;12088;53.078;8.720;2023-02-01T02:54:41;6.10;99.90
23815;DHT22;12088;53.078;8.720;2023-02-01T02:57:15;6.10;99.90
23815;DHT22;12088;53.078;8.720;2023-02-01T03:00:02;6.10;99.90
23815;DHT22;12088;53.078;8.720;2023-02-01T03:02:48;6.10;99.90
23815;DHT22;12088;53.078;8.720;2023-02-01T03:05:41;6.10;99.90
23815;DHT22;12088;53.078;8.720;2023-02-01T03:11:04;6.10;99.90
23815;DHT22;12088;53.078;8.720;2023-02-01T03:13:51;6.10;99.90
23815;DHT22;12088;53.078;8.720;2023-02-01T03:16:19;6.10;99.90
23815;DHT22;12088;53.078;8.720;2023-02-01T03:18:57;6.00;99.90
23815;DHT22;12088;53.078;8.720;2023-02-01T03:21:41;6.10;99.90
23815;DHT22;12088;53.078;8.720;2023-02-01T03:24:49;6.00;99.90
23815;DHT22;12088;53.078;8.720;2023-02-01T03:27:34;6.00;99.90
23815;DHT22;12088;53.078;8.720;2023-02-01T03:30:24;6.00;99.90
23815;DHT22;12088;53.078;8.720;2023-02-01T03:32:58;5.80;99.90
23815;DHT22;12088;53.078;8.720;2023-02-01T03:41:12;5.50;99.90
23815;DHT22;12088;53.078;8.720;2023-02-01T03:43:49;5.40;99.90
23815;DHT22;12088;53.078;8.720;2023-02-01T03:46:30;5.40;99.90
23815;DHT22;12088;53.078;8.720;2023-02-01T03:49:00;5.40;99.90
23815;DHT22;12088;53.078;8.720;2023-02-01T03:51:27;5.40;99.90
23815;DHT22;12088;53.078;8.720;2023-02-01T03:53:53;5.30;99.90
23815;DHT22;12088;53.078;8.720;2023-02-01T03:56:22;5.30;99.90
23815;DHT22;12088;53.078;8.720;2023-02-01T03:58:48;5.30;99.90
23815;DHT22;12088;53.078;8.720;2023-02-01T04:01:25;5.30;99.90
23815;DHT22;12088;53.078;8.720;2023-02-01T04:03:50;5.20;99.90
23815;DHT22;12088;53.078;8.720;2023-02-01T04:06:16;5.20;99.90
23815;DHT22;12088;53.078;8.720;2023-02-01T04:08:42;5.20;99.90
23815;DHT22;12088;53.078;8.720;2023-02-01T04:11:07;5.20;99.90
23815;DHT22;12088;53.078;8.720;2023-02-01T04:13:33;5.10;99.90
23815;DHT22;12088;53.078;8.720;2023-02-01T04:15:58;5.00;99.90
23815;DHT22;12088;53.078;8.720;2023-02-01T04:18:24;5.00;99.90
23815;DHT22;12088;53.078;8.720;2023-02-01T04:20:50;5.00;99.90
23815;DHT22;12088;53.078;8.720;2023-02-01T04:23:15;5.00;99.90
23815;DHT22;12088;53.078;8.720;2023-02-01T04:25:41;5.00;99.90
23815;DHT22;12088;53.078;8.720;2023-02-01T04:28:07;5.10;99.90
23815;DHT22;12088;53.078;8.720;2023-02-01T04:30:33;5.20;99.90
23815;DHT22;12088;53.078;8.720;2023-02-01T04:32:58;5.30;99.90
23815;DHT22;12088;53.078;8.720;2023-02-01T04:35:24;5.30;99.90
23815;DHT22;12088;53.078;8.720;2023-02-01T04:37:49;5.30;99.90
23815;DHT22;12088;53.078;8.720;2023-02-01T04:40:15;5.30;99.90
23815;DHT22;12088;53.078;8.720;2023-02-01T04:42:40;5.30;99.90
23815;DHT22;12088;53.078;8.720;2023-02-01T04:45:06;5.30;99.90
23815;DHT22;12088;53.078;8.720;2023-02-01T04:47:32;5.30;99.90
23815;DHT22;12088;53.078;8.720;2023-02-01T04:49:57;5.30;99.90
23815;DHT22;12088;53.078;8.720;2023-02-01T04:52:23;5.30;99.90
23815;DHT22;12088;53.078;8.720;2023-02-01T04:54:48;5.40;99.90
23815;DHT22;12088;53.078;8.720;2023-02-01T04:57:13;5.40;99.90
23815;DHT22;12088;53.078;8.720;2023-02-01T04:59:40;5.40;99.90
23815;DHT22;12088;53.078;8.720;2023-02-01T05:02:05;5.50;99.90
23815;DHT22;12088;53.078;8.720;2023-02-01T05:04:31;5.50;99.90
23815;DHT22;12088;53.078;8.720;2023-02-01T05:06:56;5.50;99.90
23815;DHT22;12088;53.078;8.720;2023-02-01T05:09:22;5.50;99.90
23815;DHT22;12088;53.078;8.720;2023-02-01T05:11:47;5.50;99.90
23815;DHT22;12088;53.078;8.720;2023-02-01T05:14:31;5.50;99.90
23815;DHT22;12088;53.078;8.720;2023-02-01T05:16:57;5.50;99.90
23815;DHT22;12088;53.078;8.720;2023-02-01T05:19:22;5.50;99.90
23815;DHT22;12088;53.078;8.720;2023-02-01T05:21:48;5.50;99.90
23815;DHT22;12088;53.078;8.720;2023-02-01T05:24:13;5.50;99.90
23815;DHT22;12088;53.078;8.720;2023-02-01T05:26:40;5.50;99.90
23815;DHT22;12088;53.078;8.720;2023-02-01T05:29:06;5.50;99.90
23815;DHT22;12088;53.078;8.720;2023-02-01T05:31:32;5.50;99.90
23815;DHT22;12088;53.078;8.720;2023-02-01T05:33:58;5.50;99.90
23815;DHT22;12088;53.078;8.720;2023-02-01T05:36:23;5.40;99.90
23815;DHT22;12088;53.078;8.720;2023-02-01T05:38:49;5.40;99.90
23815;DHT22;12088;53.078;8.720;2023-02-01T05:41:14;5.40;99.90
23815;DHT22;12088;53.078;8.720;2023-02-01T05:43:40;5.40;99.90
23815;DHT22;12088;53.078;8.720;2023-02-01T05:46:05;5.40;99.90
23815;DHT22;12088;53.078;8.720;2023-02-01T05:48:31;5.40;99.90
23815;DHT22;12088;53.078;8.720;2023-02-01T05:50:56;5.40;99.90
23815;DHT22;12088;53.078;8.720;2023-02-01T05:53:22;5.40;99.90
23815;DHT22;12088;53.078;8.720;2023-02-01T05:55:47;5.50;99.90
23815;DHT22;12088;53.078;8.720;2023-02-01T05:58:13;5.40;99.90
23815;DHT22;12088;53.078;8.720;2023-02-01T06:00:39;5.40;99.90
23815;DHT22;12088;53.078;8.720;2023-02-01T06:03:05;5.40;99.90
23815;DHT22;12088;53.078;8.720;2023-02-01T06:05:31;5.30;99.90
23815;DHT22;12088;53.078;8.720;2023-02-01T06:07:56;5.20;99.90
23815;DHT22;12088;53.078;8.720;2023-02-01T06:10:22;5.20;99.90
23815;DHT22;12088;53.078;8.720;2023-02-01T06:12:48;5.20;99.90
23815;DHT22;12088;53.078;8.720;2023-02-01T06:15:14;5.20;99.90
23815;DHT22;12088;53.078;8.720;2023-02-01T06:17:43;5.20;99.90
23815;DHT22;12088;53.078;8.720;2023-02-01T06:20:10;5.30;99.90
23815;DHT22;12088;53.078;8.720;2023-02-01T06:22:36;5.20;99.90
23815;DHT22;12088;53.078;8.720;2023-02-01T06:25:03;5.30;99.90
23815;DHT22;12088;53.078;8.720;2023-02-01T06:27:29;5.20;99.90
23815;DHT22;12088;53.078;8.720;2023-02-01T06:29:55;5.20;99.90
23815;DHT22;12088;53.078;8.720;2023-02-01T06:32:21;5.10;99.90
23815;DHT22;12088;53.078;8.720;2023-02-01T06:34:48;5.10;99.90
23815;DHT22;12088;53.078;8.720;2023-02-01T06:37:13;5.10;99.90
23815;DHT22;12088;53.078;8.720;2023-02-01T06:39:39;5.10;99.90
23815;DHT22;12088;53.078;8.720;2023-02-01T06:42:04;5.10;99.90
23815;DHT22;12088;53.078;8.720;2023-02-01T06:44:30;5.10;99.90
23815;DHT22;12088;53.078;8.720;2023-02-01T06:46:55;5.10;99.90
23815;DHT22;12088;53.078;8.720;2023-02-01T06:49:21;5.10;99.90
23815;DHT22;12088;53.078;8.720;2023-02-01T06:51:47;5.10;99.90
23815;DHT22;12088;53.078;8.720;2023-02-01T06:54:12;5.10;99.90
23815;DHT22;12088;53.078;8.720;2023-02-01T06:56:38;5.10;99.90
23815;DHT22;12088;53.078;8.720;2023-02-01T06:59:04;5.20;99.90
23815;DHT22;12088;53.078;8.720;2023-02-01T07:01:30;5.30;99.90
23815;DHT22;12088;53.078;8.720;2023-02-01T07:03:56;5.30;99.90
23815;DHT22;12088;53.078;8.720;2023-02-01T07:06:22;5.20;99.90
23815;DHT22;12088;53.078;8.720;2023-02-01T07:08:48;5.20;99.90
23815;DHT22;12088;53.078;8.720;2023-02-01T07:11:14;5.20;99.90
23815;DHT22;12088;53.078;8.720;2023-02-01T07:13:40;5.20;99.90
23815;DHT22;12088;53.078;8.720;2023-02-01T07:16:11;5.10;99.90
23815;DHT22;12088;53.078;8.720;2023-02-01T07:18:37;5.20;99.90
23815;DHT22;12088;53.078;8.720;2023-02-01T07:21:03;5.20;99.90
23815;DHT22;12088;53.078;8.720;2023-02-01T07:23:28;5.30;99.90
23815;DHT22;12088;53.078;8.720;2023-02-01T07:26:04;5.30;99.90
23815;DHT22;12088;53.078;8.720;2023-02-01T07:28:32;5.20;99.90
23815;DHT22;12088;53.078;8.720;2023-02-01T07:31:05;5.10;99.90
23815;DHT22;12088;53.078;8.720;2023-02-01T07:33:31;5.20;99.90
23815;DHT22;12088;53.078;8.720;2023-02-01T07:35:57;5.30;99.90
23815;DHT22;12088;53.078;8.720;2023-02-01T07:38:22;5.40;99.90
23815;DHT22;12088;53.078;8.720;2023-02-01T07:40:49;5.40;99.90
23815;DHT22;12088;53.078;8.720;2023-02-01T07:43:15;5.40;99.90
23815;DHT22;12088;53.078;8.720;2023-02-01T07:45:41;5.40;99.90
23815;DHT22;12088;53.078;8.720;2023-02-01T07:48:06;5.40;99.90
23815;DHT22;12088;53.078;8.720;2023-02-01T07:50:32;5.40;99.90
23815;DHT22;12088;53.078;8.720;2023-02-01T07:52:59;5.50;99.90
23815;DHT22;12088;53.078;8.720;2023-02-01T07:55:25;5.60;99.90
23815;DHT22;12088;53.078;8.720;2023-02-01T07:57:51;5.50;99.90
23815;DHT22;12088;53.078;8.720;2023-02-01T08:00:17;5.50;99.90
23815;DHT22;12088;53.078;8.720;2023-02-01T08:03:04;5.50;99.90
23815;DHT22;12088;53.078;8.720;2023-02-01T08:05:29;5.50;99.90
23815;DHT22;12088;53.078;8.720;2023-02-01T08:07:55;5.40;99.90
23815;DHT22;12088;53.078;8.720;2023-02-01T08:10:20;5.40;99.90
23815;DHT22;12088;53.078;8.720;2023-02-01T08:12:46;5.50;99.90
23815;DHT22;12088;53.078;8.720;2023-02-01T08:15:16;5.60;99.90
23815;DHT22;12088;53.078;8.720;2023-02-01T08:17:49;5.70;99.90
23815;DHT22;12088;53.078;8.720;2023-02-01T08:20:15;5.80;99.90
23815;DHT22;12088;53.078;8.720;2023-02-01T08:22:41;5.90;99.90
23815;DHT22;12088;53.078;8.720;2023-02-01T08:25:07;5.90;99.90
23815;DHT22;12088;53.078;8.720;2023-02-01T08:27:33;5.90;99.90
23815;DHT22;12088;53.078;8.720;2023-02-01T08:29:59;5.90;99.90
23815;DHT22;12088;53.078;8.720;2023-02-01T08:32:25;5.80;99.90
23815;DHT22;12088;53.078;8.720;2023-02-01T08:34:51;5.90;99.90
23815;DHT22;12088;53.078;8.720;2023-02-01T08:37:17;6.00;99.90
23815;DHT22;12088;53.078;8.720;2023-02-01T08:39:42;6.30;99.90
23815;DHT22;12088;53.078;8.720;2023-02-01T08:42:12;6.60;99.90
23815;DHT22;12088;53.078;8.720;2023-02-01T08:44:56;6.80;99.90
23815;DHT22;12088;53.078;8.720;2023-02-01T08:47:22;6.70;99.90
23815;DHT22;12088;53.078;8.720;2023-02-01T08:49:48;6.40;99.90
23815;DHT22;12088;53.078;8.720;2023-02-01T08:52:14;6.30;99.90
23815;DHT22;12088;53.078;8.720;2023-02-01T08:54:39;6.20;99.90
23815;DHT22;12088;53.078;8.720;2023-02-01T08:57:06;6.20;99.90
23815;DHT22;12088;53.078;8.720;2023-02-01T08:59:31;6.20;99.90
23815;DHT22;12088;53.078;8.720;2023-02-01T09:01:57;6.20;99.90
23815;DHT22;12088;53.078;8.720;2023-02-01T09:04:23;6.10;99.90
23815;DHT22;12088;53.078;8.720;2023-02-01T09:06:48;6.20;99.90
23815;DHT22;12088;53.078;8.720;2023-02-01T09:09:14;6.20;99.90
23815;DHT22;12088;53.078;8.720;2023-02-01T09:11:39;6.30;99.90
23815;DHT22;12088;53.078;8.720;2023-02-01T09:14:05;6.30;99.90
23815;DHT22;12088;53.078;8.720;2023-02-01T09:16:31;6.30;99.90
23815;DHT22;12088;53.078;8.720;2023-02-01T09:18:56;6.40;99.90
23815;DHT22;12088;53.078;8.720;2023-02-01T09:21:23;6.50;99.90
23815;DHT22;12088;53.078;8.720;2023-02-01T09:23:50;6.50;99.90
23815;DHT22;12088;53.078;8.720;2023-02-01T09:26:16;6.60;99.90
23815;DHT22;12088;53.078;8.720;2023-02-01T09:28:41;6.50;99.90
23815;DHT22;12088;53.078;8.720;2023-02-01T09:31:07;6.50;99.90
23815;DHT22;12088;53.078;8.720;2023-02-01T09:33:32;6.50;99.90
23815;DHT22;12088;53.078;8.720;2023-02-01T09:36:00;6.40;99.90
23815;DHT22;12088;53.078;8.720;2023-02-01T09:38:26;6.40;99.90
23815;DHT22;12088;53.078;8.720;2023-02-01T09:40:53;6.50;99.90
23815;DHT22;12088;53.078;8.720;2023-02-01T09:43:25;6.50;99.90
23815;DHT22;12088;53.078;8.720;2023-02-01T09:46:20;6.50;99.90
23815;DHT22;12088;53.078;8.720;2023-02-01T09:48:47;6.60;99.90
23815;DHT22;12088;53.078;8.720;2023-02-01T09:51:42;6.60;99.90
23815;DHT22;12088;53.078;8.720;2023-02-01T09:54:16;6.60;99.90
23815;DHT22;12088;53.078;8.720;2023-02-01T10:01:57;6.60;99.90
23815;DHT22;12088;53.078;8.720;2023-02-01T10:04:24;6.60;99.90
23815;DHT22;12088;53.078;8.720;2023-02-01T10:07:20;6.60;99.90
23815;DHT22;12088;53.078;8.720;2023-02-01T10:10:10;6.60;99.90
23815;DHT22;12088;53.078;8.720;2023-02-01T10:15:39;6.60;99.90
23815;DHT22;12088;53.078;8.720;2023-02-01T10:18:24;6.60;99.90
23815;DHT22;12088;53.078;8.720;2023-02-01T10:23:48;6.60;99.90
23815;DHT22;12088;53.078;8.720;2023-02-01T10:26:22;6.50;99.90
23815;DHT22;12088;53.078;8.720;2023-02-01T10:28:53;6.50;99.90
23815;DHT22;12088;53.078;8.720;2023-02-01T10:31:25;6.50;99.90
23815;DHT22;12088;53.078;8.720;2023-02-01T10:33:56;6.50;99.90
23815;DHT22;12088;53.078;8.720;2023-02-01T10:36:34;6.40;99.90
23815;DHT22;12088;53.078;8.720;2023-02-01T10:39:04;6.20;99.90
23815;DHT22;12088;53.078;8.720;2023-02-01T10:41:35;6.10;99.90
23815;DHT22;12088;53.078;8.720;2023-02-01T10:44:03;6.10;99.90
23815;DHT22;12088;53.078;8.720;2023-02-01T10:46:31;6.20;99.90
23815;DHT22;12088;53.078;8.720;2023-02-01T10:48:58;6.20;99.90
23815;DHT22;12088;53.078;8.720;2023-02-01T10:51:44;6.10;99.90
23815;DHT22;12088;53.078;8.720;2023-02-01T10:54:16;5.90;99.90
23815;DHT22;12088;53.078;8.720;2023-02-01T10:56:44;5.90;99.90
23815;DHT22;12088;53.078;8.720;2023-02-01T10:59:19;5.90;99.90
23815;DHT22;12088;53.078;8.720;2023-02-01T11:01:47;5.90;99.90
23815;DHT22;12088;53.078;8.720;2023-02-01T11:04:15;6.00;99.90
23815;DHT22;12088;53.078;8.720;2023-02-01T11:06:44;6.00;99.90
23815;DHT22;12088;53.078;8.720;2023-02-01T11:14:19;5.80;99.90
23815;DHT22;12088;53.078;8.720;2023-02-01T11:16:53;5.70;99.90
23815;DHT22;12088;53.078;8.720;2023-02-01T11:19:19;5.70;99.90
23815;DHT22;12088;53.078;8.720;2023-02-01T11:21:50;5.60;99.90
23815;DHT22;12088;53.078;8.720;2023-02-01T11:24:36;5.70;99.90
23815;DHT22;12088;53.078;8.720;2023-02-01T11:27:05;5.80;99.90
23815;DHT22;12088;53.078;8.720;2023-02-01T11:29:40;5.80;99.90
23815;DHT22;12088;53.078;8.720;2023-02-01T11:32:08;5.80;99.90
23815;DHT22;12088;53.078;8.720;2023-02-01T11:34:38;5.80;99.90
23815;DHT22;12088;53.078;8.720;2023-02-01T11:37:15;5.70;99.90
23815;DHT22;12088;53.078;8.720;2023-02-01T11:39:42;5.50;99.90
23815;DHT22;12088;53.078;8.720;2023-02-01T11:42:16;5.40;99.90
23815;DHT22;12088;53.078;8.720;2023-02-01T11:44:43;5.30;99.90
23815;DHT22;12088;53.078;8.720;2023-02-01T11:49:46;5.20;99.90
23815;DHT22;12088;53.078;8.720;2023-02-01T11:52:41;5.20;99.90
23815;DHT22;12088;53.078;8.720;2023-02-01T12:06:04;5.30;99.90
23815;DHT22;12088;53.078;8.720;2023-02-01T12:08:58;5.30;99.90
23815;DHT22;12088;53.078;8.720;2023-02-01T12:15:08;5.40;99.90
23815;DHT22;12088;53.078;8.720;2023-02-01T12:18:01;5.40;99.90
23815;DHT22;12088;53.078;8.720;2023-02-01T12:20:53;5.40;99.90
23815;DHT22;12088;53.078;8.720;2023-02-01T12:23:55;4.20;99.90
23815;DHT22;12088;53.078;8.720;2023-02-01T12:26:44;3.50;99.90
23815;DHT22;12088;53.078;8.720;2023-02-01T12:29:23;3.20;99.90
23815;DHT22;12088;53.078;8.720;2023-02-01T12:37:25;3.30;99.90
23815;DHT22;12088;53.078;8.720;2023-02-01T12:42:41;3.40;99.90
23815;DHT22;12088;53.078;8.720;2023-02-01T12:47:51;3.40;99.90
23815;DHT22;12088;53.078;8.720;2023-02-01T12:50:45;3.50;99.90
23815;DHT22;12088;53.078;8.720;2023-02-01T12:53:18;3.50;99.90
23815;DHT22;12088;53.078;8.720;2023-02-01T12:56:07;3.70;99.90
23815;DHT22;12088;53.078;8.720;2023-02-01T12:58:54;4.30;99.90
23815;DHT22;12088;53.078;8.720;2023-02-01T13:02:01;4.90;99.90
23815;DHT22;12088;53.078;8.720;2023-02-01T13:04:54;4.90;99.90
23815;DHT22;12088;53.078;8.720;2023-02-01T13:07:34;4.80;99.90
23815;DHT22;12088;53.078;8.720;2023-02-01T13:10:18;4.60;99.90
23815;DHT22;12088;53.078;8.720;2023-02-01T13:12:53;4.40;99.90
23815;DHT22;12088;53.078;8.720;2023-02-01T13:15:27;4.40;99.90
23815;DHT22;12088;53.078;8.720;2023-02-01T13:17:55;4.40;99.90
23815;DHT22;12088;53.078;8.720;2023-02-01T13:23:13;4.60;99.90
23815;DHT22;12088;53.078;8.720;2023-02-01T13:25:50;5.00;99.90
23815;DHT22;12088;53.078;8.720;2023-02-01T13:28:23;5.10;99.90
23815;DHT22;12088;53.078;8.720;2023-02-01T13:36:28;5.80;99.90
23815;DHT22;12088;53.078;8.720;2023-02-01T13:41:59;5.80;99.90
23815;DHT22;12088;53.078;8.720;2023-02-01T13:44:27;6.00;99.90
23815;DHT22;12088;53.078;8.720;2023-02-01T13:46:56;6.30;99.90
23815;DHT22;12088;53.078;8.720;2023-02-01T13:49:26;6.30;99.90
23815;DHT22;12088;53.078;8.720;2023-02-01T13:51:55;6.00;99.90
23815;DHT22;12088;53.078;8.720;2023-02-01T13:56:54;5.80;99.90
23815;DHT22;12088;53.078;8.720;2023-02-01T14:05:01;5.90;99.90
23815;DHT22;12088;53.078;8.720;2023-02-01T14:07:26;6.10;99.90
23815;DHT22;12088;53.078;8.720;2023-02-01T14:09:52;6.20;99.90
23815;DHT22;12088;53.078;8.720;2023-02-01T14:12:42;6.30;99.90
23815;DHT22;12088;53.078;8.720;2023-02-01T14:15:20;6.30;99.90
23815;DHT22;12088;53.078;8.720;2023-02-01T14:17:47;6.30;99.90
23815;DHT22;12088;53.078;8.720;2023-02-01T14:23:04;6.20;99.90
23815;DHT22;12088;53.078;8.720;2023-02-01T14:25:35;6.30;99.90
23815;DHT22;12088;53.078;8.720;2023-02-01T14:28:01;6.30;99.90
23815;DHT22;12088;53.078;8.720;2023-02-01T14:30:27;6.30;99.90
23815;DHT22;12088;53.078;8.720;2023-02-01T14:32:53;6.40;99.90
23815;DHT22;12088;53.078;8.720;2023-02-01T14:35:25;6.20;99.90
23815;DHT22;12088;53.078;8.720;2023-02-01T14:37:54;6.10;99.90
23815;DHT22;12088;53.078;8.720;2023-02-01T14:40:27;6.20;99.90
23815;DHT22;12088;53.078;8.720;2023-02-01T14:42:54;6.30;99.90
23815;DHT22;12088;53.078;8.720;2023-02-01T14:56:08;6.30;99.90
23815;DHT22;12088;53.078;8.720;2023-02-01T14:58:57;6.20;99.90
23815;DHT22;12088;53.078;8.720;2023-02-01T15:01:38;6.30;99.90
23815;DHT22;12088;53.078;8.720;2023-02-01T15:06:49;6.40;99.90
23815;DHT22;12088;53.078;8.720;2023-02-01T15:09:25;6.30;99.90
23815;DHT22;12088;53.078;8.720;2023-02-01T15:12:03;6.30;99.90
23815;DHT22;12088;53.078;8.720;2023-02-01T15:14:36;6.30;99.90
23815;DHT22;12088;53.078;8.720;2023-02-01T15:17:03;6.30;99.90
23815;DHT22;12088;53.078;8.720;2023-02-01T15:19:59;6.30;99.90
23815;DHT22;12088;53.078;8.720;2023-02-01T15:22:25;6.30;99.90
23815;DHT22;12088;53.078;8.720;2023-02-01T15:24:53;6.40;99.90
23815;DHT22;12088;53.078;8.720;2023-02-01T15:27:20;6.50;99.90
23815;DHT22;12088;53.078;8.720;2023-02-01T15:29:45;6.50;99.90
23815;DHT22;12088;53.078;8.720;2023-02-01T15:32:31;6.60;99.90
23815;DHT22;12088;53.078;8.720;2023-02-01T15:34:57;6.70;99.90
23815;DHT22;12088;53.078;8.720;2023-02-01T15:37:23;6.70;99.90
23815;DHT22;12088;53.078;8.720;2023-02-01T15:42:56;6.60;99.90
23815;DHT22;12088;53.078;8.720;2023-02-01T15:45:26;6.60;99.90
23815;DHT22;12088;53.078;8.720;2023-02-01T15:47:54;6.60;99.90
23815;DHT22;12088;53.078;8.720;2023-02-01T15:50:21;6.50;99.90
23815;DHT22;12088;53.078;8.720;2023-02-01T15:52:49;6.50;99.90
23815;DHT22;12088;53.078;8.720;2023-02-01T15:55:26;6.50;99.90
23815;DHT22;12088;53.078;8.720;2023-02-01T15:57:56;6.40;99.90
23815;DHT22;12088;53.078;8.720;2023-02-01T16:00:28;6.50;99.90
23815;DHT22;12088;53.078;8.720;2023-02-01T16:05:44;6.50;99.90
23815;DHT22;12088;53.078;8.720;2023-02-01T16:08:15;6.30;99.90
23815;DHT22;12088;53.078;8.720;2023-02-01T16:10:47;6.20;99.90
23815;DHT22;12088;53.078;8.720;2023-02-01T16:13:14;5.90;99.90
23815;DHT22;12088;53.078;8.720;2023-02-01T16:15:40;5.40;99.90
23815;DHT22;12088;53.078;8.720;2023-02-01T16:18:09;5.00;99.90
23815;DHT22;12088;53.078;8.720;2023-02-01T16:20:36;4.90;99.90
23815;DHT22;12088;53.078;8.720;2023-02-01T16:23:03;4.90;99.90
23815;DHT22;12088;53.078;8.720;2023-02-01T16:25:30;4.90;99.90
23815;DHT22;12088;53.078;8.720;2023-02-01T16:27:55;5.00;99.90
23815;DHT22;12088;53.078;8.720;2023-02-01T16:30:21;5.10;99.90
23815;DHT22;12088;53.078;8.720;2023-02-01T16:32:52;5.20;99.90
23815;DHT22;12088;53.078;8.720;2023-02-01T16:35:23;5.30;99.90
23815;DHT22;12088;53.078;8.720;2023-02-01T16:37:49;5.40;99.90
23815;DHT22;12088;53.078;8.720;2023-02-01T16:40:16;5.10;99.90
23815;DHT22;12088;53.078;8.720;2023-02-01T16:42:42;5.00;99.90
23815;DHT22;12088;53.078;8.720;2023-02-01T16:45:08;4.90;99.90
23815;DHT22;12088;53.078;8.720;2023-02-01T16:47:36;5.00;99.90
23815;DHT22;12088;53.078;8.720;2023-02-01T16:50:03;4.90;99.90
23815;DHT22;12088;53.078;8.720;2023-02-01T16:52:29;4.90;99.90
23815;DHT22;12088;53.078;8.720;2023-02-01T16:54:54;4.90;99.90
23815;DHT22;12088;53.078;8.720;2023-02-01T16:57:20;4.80;99.90
23815;DHT22;12088;53.078;8.720;2023-02-01T16:59:47;4.70;99.90
23815;DHT22;12088;53.078;8.720;2023-02-01T17:02:17;4.70;99.90
23815;DHT22;12088;53.078;8.720;2023-02-01T17:04:44;4.70;99.90
23815;DHT22;12088;53.078;8.720;2023-02-01T17:07:18;4.60;99.90
23815;DHT22;12088;53.078;8.720;2023-02-01T17:09:44;4.60;99.90
23815;DHT22;12088;53.078;8.720;2023-02-01T17:12:22;4.80;99.90
23815;DHT22;12088;53.078;8.720;2023-02-01T17:14:48;5.00;99.90
23815;DHT22;12088;53.078;8.720;2023-02-01T17:17:14;5.10;99.90
23815;DHT22;12088;53.078;8.720;2023-02-01T17:19:40;5.30;99.90
23815;DHT22;12088;53.078;8.720;2023-02-01T17:22:05;5.40;99.90
23815;DHT22;12088;53.078;8.720;2023-02-01T17:24:31;5.50;99.90
23815;DHT22;12088;53.078;8.720;2023-02-01T17:27:00;5.70;99.90
23815;DHT22;12088;53.078;8.720;2023-02-01T17:29:25;5.80;99.90
23815;DHT22;12088;53.078;8.720;2023-02-01T17:31:53;5.80;99.90
23815;DHT22;12088;53.078;8.720;2023-02-01T17:34:20;5.80;99.90
23815;DHT22;12088;53.078;8.720;2023-02-01T17:36:46;5.80;99.90
23815;DHT22;12088;53.078;8.720;2023-02-01T17:39:13;5.80;99.90
23815;DHT22;12088;53.078;8.720;2023-02-01T17:41:58;5.90;99.90
23815;DHT22;12088;53.078;8.720;2023-02-01T17:44:24;5.70;99.90
23815;DHT22;12088;53.078;8.720;2023-02-01T17:46:49;5.70;99.90